Time;durP1;ratioP1;P1;durP2;ratioP2;P2;SDS_P1;SDS_P2;PMS_P1;PMS_P2;Temp;Humidity;BMP_temperature;BMP_pressure;BME280_temperature;BME280_humidity;BME280_pressure;Samples;Min_cycle;Max_cycle;Signal;HPM_P1;HPM_P2
2023/06/02 00:02:22;;;;;;;11.50;5.10;;;;;;;15.51;58.67;100070.17;220941;1235;61352;-72
2023/06/02 00:07:14;;;;;;;10.30;5.10;;;;;;;15.39;58.93;100070.14;220989;1235;62031;-73
2023/06/02 00:12:06;;;;;;;10.70;5.10;;;;;;;15.30;58.98;100074.29;220991;1235;61305;-72
2023/06/02 00:17:00;;;;;;;11.80;5.80;;;;;;;15.22;59.41;100078.38;220992;1235;68161;-73
2023/06/02 00:21:53;;;;;;;10.00;4.80;;;;;;;15.17;59.51;100080.90;220986;1235;61192;-72
2023/06/02 00:26:45;;;;;;;7.70;4.60;;;;;;;15.13;59.69;100081.13;220908;1235;61222;-72
2023/06/02 00:31:36;;;;;;;11.10;5.30;;;;;;;14.98;60.10;100082.34;220962;1239;61274;-72
2023/06/02 00:36:28;;;;;;;7.30;5.10;;;;;;;14.91;60.18;100091.49;221001;1235;72692;-72
2023/06/02 00:41:20;;;;;;;7.60;4.90;;;;;;;14.80;60.55;100093.89;220933;1239;61229;-73
2023/06/02 00:46:11;;;;;;;9.40;5.50;;;;;;;14.70;60.71;100099.22;220890;1236;61384;-73
2023/06/02 00:51:04;;;;;;;9.50;5.30;;;;;;;14.64;60.75;100099.78;220955;1235;71835;-72
2023/06/02 00:55:56;;;;;;;10.80;5.50;;;;;;;14.55;61.00;100099.15;220920;1239;61349;-72
2023/06/02 01:00:48;;;;;;;9.80;5.40;;;;;;;14.52;61.22;100093.59;220953;1235;61504;-73
2023/06/02 01:05:44;;;;;;;10.20;5.30;;;;;;;14.48;61.34;100100.06;220848;1235;61370;-73
2023/06/02 01:10:37;;;;;;;8.70;5.10;;;;;;;14.43;61.45;100100.47;220884;1235;61295;-73
2023/06/02 01:15:28;;;;;;;13.00;7.10;;;;;;;14.30;61.64;100103.89;220993;1236;61271;-72
2023/06/02 01:20:21;;;;;;;9.00;5.10;;;;;;;14.22;61.82;100104.48;220929;1239;61269;-72
2023/06/02 01:25:32;;;;;;;15.20;6.10;;;;;;;14.15;62.03;100111.15;220970;1235;61349;-72
2023/06/02 01:30:25;;;;;;;9.50;5.50;;;;;;;14.06;62.14;100109.82;220900;1239;61220;-73
2023/06/02 01:35:20;;;;;;;8.00;5.70;;;;;;;13.99;62.25;100111.09;220867;1239;75543;-73
2023/06/02 01:40:13;;;;;;;9.80;5.60;;;;;;;13.93;62.40;100110.44;220877;1235;72470;-73
2023/06/02 01:45:07;;;;;;;11.30;5.80;;;;;;;13.89;62.60;100106.98;220915;1235;61329;-72
2023/06/02 01:49:58;;;;;;;13.50;5.80;;;;;;;13.83;62.66;100106.14;220952;1236;65731;-72
2023/06/02 01:54:50;;;;;;;7.40;5.90;;;;;;;13.74;62.76;100102.89;220835;1235;61289;-72
2023/06/02 01:59:42;;;;;;;10.70;5.50;;;;;;;13.65;62.83;100106.24;220998;1235;61233;-72
2023/06/02 02:04:34;;;;;;;7.10;5.10;;;;;;;13.58;62.99;100110.96;221050;1236;61269;-73
2023/06/02 02:09:25;;;;;;;10.60;5.20;;;;;;;13.48;63.30;100117.46;221035;1236;74797;-72
2023/06/02 02:14:19;;;;;;;8.70;5.50;;;;;;;13.42;63.29;100120.10;220900;1235;61274;-72
2023/06/02 02:19:12;;;;;;;13.10;5.60;;;;;;;13.36;63.32;100115.25;220842;1235;61655;-73
2023/06/02 02:24:04;;;;;;;7.80;5.90;;;;;;;13.32;63.39;100113.89;220838;1235;61384;-73
2023/06/02 02:28:55;;;;;;;10.20;6.00;;;;;;;13.26;63.36;100111.77;221038;1237;61290;-73
2023/06/02 02:33:47;;;;;;;8.40;4.90;;;;;;;13.16;63.42;100110.08;220933;1235;66340;-72
2023/06/02 02:38:39;;;;;;;8.20;4.80;;;;;;;13.13;63.76;100108.52;221038;1235;61329;-72
2023/06/02 02:43:32;;;;;;;6.70;5.20;;;;;;;13.13;63.83;100111.65;220954;1235;61263;-73
2023/06/02 02:48:24;;;;;;;9.20;6.00;;;;;;;13.06;64.06;100118.81;220824;1236;61229;-72
2023/06/02 02:53:16;;;;;;;7.30;5.50;;;;;;;13.09;64.35;100120.89;220983;1239;61208;-73
2023/06/02 02:58:08;;;;;;;13.00;5.90;;;;;;;13.13;64.54;100116.34;220955;1238;73266;-73
2023/06/02 03:03:01;;;;;;;7.90;6.00;;;;;;;13.22;64.61;100116.67;220988;1239;61353;-72
2023/06/02 03:07:53;;;;;;;11.30;5.70;;;;;;;13.31;64.54;100117.00;220914;1234;61980;-73
2023/06/02 03:12:44;;;;;;;9.50;5.60;;;;;;;13.33;64.59;100119.62;220931;1235;61305;-73
2023/06/02 03:17:37;;;;;;;11.70;6.10;;;;;;;13.39;64.82;100118.55;220926;1239;65445;-72
2023/06/02 03:22:29;;;;;;;6.70;5.40;;;;;;;13.46;64.70;100121.66;220981;1236;61328;-72
2023/06/02 03:27:20;;;;;;;16.00;6.00;;;;;;;13.48;64.78;100124.09;220907;1236;61358;-73
2023/06/02 03:32:16;;;;;;;15.20;8.60;;;;;;;13.55;64.75;100129.10;220892;1234;71665;-72
2023/06/02 03:37:10;;;;;;;9.90;6.30;;;;;;;13.62;64.62;100128.90;220973;1235;61843;-73
2023/06/02 03:42:01;;;;;;;8.00;5.60;;;;;;;13.72;64.65;100125.02;220936;1237;61231;-73
2023/06/02 03:46:53;;;;;;;11.90;6.50;;;;;;;13.83;64.65;100123.73;221002;1237;61283;-73
2023/06/02 03:51:46;;;;;;;10.70;6.30;;;;;;;13.86;64.56;100131.90;221026;1238;61429;-73
2023/06/02 03:56:38;;;;;;;7.40;6.50;;;;;;;13.87;64.67;100136.61;220866;1235;61307;-73
2023/06/02 04:01:32;;;;;;;10.00;5.80;;;;;;;13.89;64.56;100140.77;220921;1235;61236;-72
2023/06/02 04:06:26;;;;;;;10.10;6.50;;;;;;;13.89;64.56;100142.68;220967;1235;73184;-72
2023/06/02 04:11:17;;;;;;;10.80;6.10;;;;;;;13.88;64.80;100150.36;221021;1235;61287;-73
2023/06/02 04:16:09;;;;;;;13.10;6.50;;;;;;;13.92;64.61;100156.60;220980;1235;61223;-72
2023/06/02 04:21:02;;;;;;;12.10;6.90;;;;;;;13.98;64.78;100156.05;221019;1239;61196;-72
2023/06/02 04:25:54;;;;;;;13.60;7.30;;;;;;;14.07;64.44;100158.27;220846;1235;61255;-73
2023/06/02 04:30:45;;;;;;;10.90;5.90;;;;;;;14.17;64.50;100153.84;221162;1238;61287;-73
2023/06/02 04:35:37;;;;;;;12.70;7.20;;;;;;;14.21;64.59;100159.74;221085;1235;67944;-73
2023/06/02 04:40:29;;;;;;;10.10;6.60;;;;;;;14.21;64.38;100163.39;220943;1237;61275;-73
2023/06/02 04:45:23;;;;;;;12.30;6.90;;;;;;;14.24;64.38;100164.42;221064;1235;61219;-72
2023/06/02 04:50:16;;;;;;;12.30;6.90;;;;;;;14.30;64.24;100163.34;220971;1235;73524;-72
2023/06/02 04:55:10;;;;;;;9.00;6.30;;;;;;;14.26;64.31;100168.23;221150;1239;61407;-73
2023/06/02 05:00:05;;;;;;;9.80;6.50;;;;;;;14.22;64.17;100166.89;221069;1239;65723;-73
2023/06/02 05:04:58;;;;;;;9.90;6.80;;;;;;;14.21;64.13;100172.64;221077;1235;61336;-73
2023/06/02 05:09:50;;;;;;;9.00;6.30;;;;;;;14.20;64.16;100169.51;221099;1235;61236;-73
2023/06/02 05:14:43;;;;;;;11.10;6.70;;;;;;;14.25;64.16;100166.15;221037;1239;61239;-73
2023/06/02 05:19:36;;;;;;;11.00;6.90;;;;;;;14.32;64.36;100175.17;220927;1235;61240;-73
2023/06/02 05:24:28;;;;;;;15.30;8.60;;;;;;;14.40;64.20;100178.61;221049;1235;61266;-73
2023/06/02 05:29:20;;;;;;;9.80;7.20;;;;;;;14.37;64.34;100178.45;221020;1236;61333;-73
2023/06/02 05:34:12;;;;;;;11.70;6.60;;;;;;;14.42;64.41;100177.02;221047;1235;65640;-73
2023/06/02 05:39:04;;;;;;;20.80;8.00;;;;;;;14.47;64.06;100176.12;220606;1237;61847;-72
2023/06/02 05:43:57;;;;;;;11.20;6.70;;;;;;;14.52;64.10;100176.59;220493;1239;61294;-73
2023/06/02 05:48:50;;;;;;;11.80;6.90;;;;;;;14.63;64.26;100180.55;220594;1236;61317;-73
2023/06/02 05:53:43;;;;;;;12.00;6.80;;;;;;;14.74;64.15;100184.65;220862;1235;61357;-73
2023/06/02 05:58:38;;;;;;;12.40;6.70;;;;;;;14.83;63.51;100185.95;220993;1239;85351;-73
2023/06/02 06:03:30;;;;;;;10.90;6.80;;;;;;;14.99;63.36;100194.02;220932;1238;61267;-74
2023/06/02 06:08:22;;;;;;;11.00;6.40;;;;;;;15.01;63.05;100195.93;221005;1235;61268;-73
2023/06/02 06:13:13;;;;;;;10.90;7.20;;;;;;;14.96;63.31;100195.63;220909;1235;62402;-74
2023/06/02 06:18:05;;;;;;;15.40;7.00;;;;;;;14.91;63.35;100201.08;222240;1235;73477;-73
2023/06/02 06:22:57;;;;;;;13.40;7.00;;;;;;;14.91;63.63;100205.45;220652;1236;61316;-73
2023/06/02 06:27:50;;;;;;;9.60;7.00;;;;;;;14.90;63.50;100206.66;220859;1236;61245;-72
2023/06/02 06:32:43;;;;;;;18.30;7.80;;;;;;;14.88;63.66;100200.58;221061;1237;61269;-73
2023/06/02 06:37:34;;;;;;;11.10;7.20;;;;;;;14.95;63.56;100201.38;221109;1239;61426;-73
2023/06/02 06:42:26;;;;;;;12.60;7.90;;;;;;;14.90;63.64;100202.83;220933;1239;65350;-73
2023/06/02 06:47:26;;;;;;;8.90;6.30;;;;;;;14.76;63.65;100209.23;220964;1235;61857;-73
2023/06/02 06:52:18;;;;;;;10.10;7.60;;;;;;;14.68;63.99;100216.64;220773;1236;61336;-73
2023/06/02 06:57:11;;;;;;;10.30;7.00;;;;;;;14.69;64.22;100224.98;220958;1235;61251;-73
2023/06/02 07:02:02;;;;;;;11.40;6.50;;;;;;;14.65;64.32;100232.86;220970;1235;61343;-73
2023/06/02 07:06:55;;;;;;;7.80;5.60;;;;;;;14.58;64.22;100237.61;220878;1239;72817;-73
2023/06/02 07:11:49;;;;;;;12.10;8.30;;;;;;;14.46;64.23;100243.95;220921;1239;61362;-73
2023/06/02 07:16:45;;;;;;;10.60;7.40;;;;;;;14.38;64.33;100248.54;220933;1235;61275;-73
2023/06/02 07:21:36;;;;;;;13.10;7.50;;;;;;;14.36;64.59;100258.30;221070;1234;61215;-73
2023/06/02 07:26:28;;;;;;;6.70;5.40;;;;;;;14.35;64.76;100261.98;220967;1235;61600;-73
2023/06/02 07:31:21;;;;;;;7.20;5.40;;;;;;;14.36;64.62;100261.98;220927;1236;61243;-73
2023/06/02 07:36:13;;;;;;;7.80;5.00;;;;;;;14.43;64.30;100261.76;221101;1239;61245;-73
2023/06/02 07:41:04;;;;;;;5.80;4.10;;;;;;;14.57;64.39;100266.73;220960;1239;72427;-73
2023/06/02 07:45:57;;;;;;;6.70;4.40;;;;;;;14.67;64.13;100270.17;220869;1235;61320;-74
2023/06/02 07:50:48;;;;;;;8.10;4.20;;;;;;;14.64;64.00;100272.64;221091;1239;61246;-74
2023/06/02 07:55:40;;;;;;;5.50;4.10;;;;;;;14.68;63.86;100274.88;221082;1239;61704;-74
2023/06/02 08:00:32;;;;;;;6.30;4.40;;;;;;;14.91;63.94;100276.98;221068;1235;61988;-74
2023/06/02 08:05:23;;;;;;;8.00;4.60;;;;;;;15.18;63.66;100279.71;221205;1235;61249;-74
2023/06/02 08:10:15;;;;;;;8.20;5.00;;;;;;;15.72;63.13;100287.39;221164;1239;66478;-73
2023/06/02 08:15:07;;;;;;;18.20;6.30;;;;;;;16.14;61.89;100300.92;220974;1239;61324;-74
2023/06/02 08:20:00;;;;;;;7.00;5.00;;;;;;;16.26;61.32;100300.24;221091;1239;61756;-74
2023/06/02 08:24:53;;;;;;;7.00;4.20;;;;;;;16.46;60.88;100306.98;221185;1239;61317;-73
2023/06/02 08:29:45;;;;;;;8.20;4.30;;;;;;;16.35;60.93;100311.50;220948;1239;61281;-73
2023/06/02 08:34:41;;;;;;;7.90;5.30;;;;;;;16.41;60.55;100305.99;220913;1239;61336;-74
2023/06/02 08:39:39;;;;;;;5.20;4.70;;;;;;;16.74;60.15;100304.83;220892;1235;61208;-74
2023/06/02 08:44:43;;;;;;;6.40;4.50;;;;;;;17.50;58.86;100303.05;221117;1239;65216;-74
2023/06/02 08:49:46;;;;;;;8.00;4.70;;;;;;;18.30;57.80;100306.45;221142;1239;61366;-73
2023/06/02 08:54:40;;;;;;;6.90;4.90;;;;;;;18.01;57.53;100309.48;221105;1236;74676;-74
2023/06/02 08:59:32;;;;;;;6.60;5.50;;;;;;;17.80;57.77;100304.27;221222;1237;73536;-73
2023/06/02 09:04:24;;;;;;;6.10;5.10;;;;;;;17.83;57.71;100307.02;221251;1235;61396;-74
2023/06/02 09:09:15;;;;;;;8.50;4.90;;;;;;;18.25;57.05;100314.60;221212;1235;61337;-73
2023/06/02 09:14:40;;;;;;;7.80;4.40;;;;;;;18.97;55.90;100316.20;221231;1236;61331;-73
2023/06/02 09:19:52;;;;;;;6.00;4.10;;;;;;;18.56;56.07;100325.20;220986;1239;66841;-73
2023/06/02 09:24:44;;;;;;;11.60;5.80;;;;;;;18.04;56.24;100333.27;221131;1235;61374;-73
2023/06/02 09:29:38;;;;;;;6.30;3.60;;;;;;;17.50;56.79;100339.33;221159;1235;61162;-73
2023/06/02 09:34:37;;;;;;;5.50;3.90;;;;;;;17.03;57.32;100349.39;221107;1235;72791;-73
2023/06/02 09:39:33;;;;;;;10.90;3.80;;;;;;;16.50;58.26;100360.61;221186;1236;61235;-73
2023/06/02 09:44:26;;;;;;;6.80;4.10;;;;;;;16.15;58.75;100368.23;221181;1236;66798;-73
2023/06/02 09:49:17;;;;;;;10.20;3.90;;;;;;;15.85;59.52;100378.86;221117;1235;61292;-73
2023/06/02 09:54:09;;;;;;;8.20;4.00;;;;;;;15.53;60.00;100385.05;221189;1236;61368;-73
2023/06/02 09:59:01;;;;;;;12.10;4.60;;;;;;;15.20;60.60;100393.00;221193;1237;61278;-73
2023/06/02 10:03:53;;;;;;;8.70;4.40;;;;;;;14.96;61.49;100392.13;220933;1235;74480;-73
2023/06/02 10:09:11;;;;;;;10.10;5.10;;;;;;;14.84;62.63;100400.23;221217;1235;61252;-73
2023/06/02 10:14:11;;;;;;;8.60;4.00;;;;;;;14.71;63.25;100407.10;220974;1239;61257;-73
2023/06/02 10:19:12;;;;;;;6.80;5.60;;;;;;;14.62;63.61;100413.41;221173;1239;65985;-73
2023/06/02 10:24:36;;;;;;;11.30;5.20;;;;;;;14.69;63.84;100420.54;221303;1239;61970;-73
2023/06/02 10:29:31;;;;;;;7.40;4.30;;;;;;;14.78;63.98;100427.13;221182;1239;72769;-73
2023/06/02 10:34:34;;;;;;;8.10;3.90;;;;;;;14.79;63.68;100426.59;221124;1239;70811;-74
2023/06/02 10:39:35;;;;;;;10.20;4.70;;;;;;;14.80;63.87;100434.79;221055;1239;144528;-73
2023/06/02 10:44:31;;;;;;;6.30;3.80;;;;;;;14.74;63.94;100434.64;221162;1237;66923;-73
2023/06/02 10:49:51;;;;;;;7.90;4.90;;;;;;;14.74;63.73;100436.39;221167;1239;61776;-73
2023/06/02 10:54:44;;;;;;;9.50;4.00;;;;;;;14.85;63.77;100439.29;221168;1239;73665;-73
2023/06/02 10:59:36;;;;;;;9.60;3.70;;;;;;;14.98;63.78;100444.30;221144;1237;61250;-73
2023/06/02 11:04:31;;;;;;;7.10;3.60;;;;;;;15.13;63.52;100443.52;221192;1237;61197;-73
2023/06/02 11:09:33;;;;;;;6.60;3.10;;;;;;;15.08;63.25;100450.16;220946;1236;70628;-73
2023/06/02 11:14:25;;;;;;;5.40;2.70;;;;;;;15.02;62.05;100458.23;221172;1235;61263;-73
2023/06/02 11:19:46;;;;;;;5.20;2.00;;;;;;;15.02;61.24;100461.38;220992;1235;61342;-73
2023/06/02 11:24:38;;;;;;;5.50;2.20;;;;;;;15.23;60.28;100464.91;220929;1235;61330;-73
2023/06/02 11:29:30;;;;;;;2.50;2.00;;;;;;;15.44;59.52;100472.65;221214;1236;61248;-73
2023/06/02 11:34:21;;;;;;;5.20;2.10;;;;;;;15.62;58.50;100476.52;221224;1235;61403;-73
2023/06/02 11:39:13;;;;;;;1.90;1.60;;;;;;;15.76;57.97;100475.23;221168;1239;73020;-74
2023/06/02 11:44:10;;;;;;;5.10;1.90;;;;;;;15.93;57.63;100474.90;221149;1239;61382;-74
2023/06/02 11:49:03;;;;;;;5.30;2.10;;;;;;;16.00;56.89;100487.77;221206;1237;61362;-73
2023/06/02 11:54:00;;;;;;;2.70;2.10;;;;;;;15.91;56.48;100497.30;221205;1235;61244;-73
2023/06/02 11:58:52;;;;;;;8.90;2.80;;;;;;;15.87;56.29;100512.36;221278;1237;61248;-73
2023/06/02 12:03:59;;;;;;;2.20;1.60;;;;;;;15.88;56.30;100520.40;221177;1235;61385;-73
2023/06/02 12:08:50;;;;;;;5.70;2.50;;;;;;;16.11;56.58;100524.39;221176;1236;71753;-73
2023/06/02 12:13:56;;;;;;;6.00;2.40;;;;;;;16.13;55.89;100533.82;221270;1237;61245;-73
2023/06/02 12:18:48;;;;;;;5.30;2.20;;;;;;;16.00;55.45;100540.23;221205;1236;66897;-73
2023/06/02 12:23:46;;;;;;;5.60;2.50;;;;;;;15.90;55.03;100550.63;221271;1235;61419;-74
2023/06/02 12:28:40;;;;;;;2.70;1.90;;;;;;;15.94;54.40;100555.65;221186;1236;74778;-73
2023/06/02 12:33:31;;;;;;;3.50;1.80;;;;;;;16.12;54.15;100548.16;221187;1236;61237;-73
2023/06/02 12:38:24;;;;;;;6.40;1.70;;;;;;;16.57;53.89;100548.62;221186;1237;61332;-74
2023/06/02 12:43:18;;;;;;;2.80;2.00;;;;;;;16.74;53.63;100559.45;220977;1236;61279;-73
2023/06/02 12:48:11;;;;;;;4.20;1.90;;;;;;;16.58;52.83;100571.00;221159;1235;61347;-73
2023/06/02 12:53:02;;;;;;;4.10;2.00;;;;;;;16.14;53.06;100579.27;221185;1239;61887;-73
2023/06/02 12:57:55;;;;;;;4.90;2.00;;;;;;;15.61;53.27;100591.14;221176;1235;61364;-73
2023/06/02 13:02:47;;;;;;;3.10;1.70;;;;;;;15.19;53.54;100598.50;220974;1239;72417;-73
2023/06/02 13:07:40;;;;;;;2.20;1.70;;;;;;;14.85;53.57;100605.23;221039;1239;61326;-73
2023/06/02 13:12:32;;;;;;;3.00;2.00;;;;;;;14.75;53.94;100610.48;220883;1239;61356;-73
2023/06/02 13:17:27;;;;;;;2.90;1.90;;;;;;;14.84;53.97;100613.45;221087;1239;61260;-72
2023/06/02 13:22:20;;;;;;;5.30;1.70;;;;;;;14.90;53.85;100618.32;221085;1239;61217;-73
2023/06/02 13:27:11;;;;;;;2.70;1.90;;;;;;;14.98;54.13;100620.05;221154;1239;61252;-73
2023/06/02 13:32:04;;;;;;;10.10;2.10;;;;;;;15.09;53.81;100626.48;221030;1239;61319;-74
2023/06/02 13:36:55;;;;;;;6.00;2.00;;;;;;;15.25;53.40;100626.60;221086;1236;61234;-73
2023/06/02 13:41:47;;;;;;;4.40;1.60;;;;;;;15.52;53.24;100625.27;221110;1238;61213;-73
2023/06/02 13:46:39;;;;;;;4.00;1.90;;;;;;;15.71;52.89;100629.70;221107;1235;70804;-73
2023/06/02 13:51:34;;;;;;;2.90;2.00;;;;;;;15.83;52.11;100634.39;220911;1239;72777;-73
2023/06/02 13:56:27;;;;;;;2.00;1.40;;;;;;;15.93;51.56;100638.87;221159;1235;61371;-73
2023/06/02 14:01:19;;;;;;;2.70;1.70;;;;;;;16.04;51.13;100635.30;221133;1237;61281;-73
2023/06/02 14:06:10;;;;;;;2.50;1.60;;;;;;;16.18;50.70;100640.96;220949;1239;61646;-73
2023/06/02 14:11:02;;;;;;;5.40;2.80;;;;;;;16.26;50.22;100639.16;221060;1236;61288;-73
2023/06/02 14:15:54;;;;;;;2.70;2.30;;;;;;;16.48;50.02;100640.90;220954;1239;61238;-73
2023/06/02 14:20:48;;;;;;;2.10;1.80;;;;;;;17.22;48.84;100636.33;220996;1237;61233;-73
2023/06/02 14:25:42;;;;;;;2.70;1.80;;;;;;;17.61;48.64;100629.72;221157;1239;61253;-73
2023/06/02 14:30:36;;;;;;;3.10;1.80;;;;;;;17.88;47.86;100627.96;221101;1239;61424;-73
2023/06/02 14:35:38;;;;;;;3.20;2.00;;;;;;;17.96;47.10;100627.85;220984;1235;66994;-73
2023/06/02 14:40:30;;;;;;;2.40;1.80;;;;;;;18.05;46.94;100631.23;221124;1239;61207;-73
2023/06/02 14:45:23;;;;;;;3.60;1.90;;;;;;;18.17;45.52;100625.41;221092;1239;61287;-74
2023/06/02 14:50:14;;;;;;;4.30;1.50;;;;;;;18.32;45.84;100615.55;221155;1235;61332;-73
2023/06/02 14:55:06;;;;;;;2.70;1.40;;;;;;;18.47;45.00;100620.04;221175;1235;61353;-73
2023/06/02 14:59:58;;;;;;;2.50;1.90;;;;;;;18.58;44.36;100622.98;220964;1239;73230;-73
2023/06/02 15:04:50;;;;;;;6.10;1.90;;;;;;;18.27;43.28;100630.33;221169;1236;61370;-73
2023/06/02 15:09:42;;;;;;;2.00;1.60;;;;;;;17.40;43.74;100633.67;221207;1235;61421;-73
2023/06/02 15:14:43;;;;;;;4.80;1.70;;;;;;;17.32;44.51;100632.37;220949;1239;61867;-73
2023/06/02 15:19:36;;;;;;;2.30;1.50;;;;;;;17.10;44.63;100627.73;221104;1239;67059;-73
2023/06/02 15:24:27;;;;;;;2.70;1.80;;;;;;;17.45;44.20;100627.48;221103;1239;61207;-73
2023/06/02 15:29:19;;;;;;;2.20;1.60;;;;;;;17.82;43.73;100621.20;221162;1240;61254;-73
2023/06/02 15:34:18;;;;;;;2.50;1.50;;;;;;;18.00;42.89;100617.64;221187;1235;61322;-73
2023/06/02 15:39:10;;;;;;;3.00;1.60;;;;;;;18.06;42.75;100618.59;221089;1239;75403;-73
2023/06/02 15:44:02;;;;;;;1.50;1.40;;;;;;;18.08;43.02;100608.57;221192;1240;61255;-73
2023/06/02 15:48:56;;;;;;;1.70;1.60;;;;;;;18.20;42.56;100608.03;221093;1235;61380;-73
2023/06/02 15:54:04;;;;;;;4.40;1.60;;;;;;;18.24;41.97;100609.00;221030;1235;61244;-74
2023/06/02 15:58:56;;;;;;;1.70;1.10;;;;;;;18.12;41.33;100611.48;221082;1239;61371;-74
2023/06/02 16:03:54;;;;;;;2.70;1.30;;;;;;;18.13;41.14;100619.88;221097;1235;61249;-73
2023/06/02 16:08:51;;;;;;;3.60;1.50;;;;;;;18.16;40.45;100619.83;220934;1240;71548;-73
2023/06/02 16:13:43;;;;;;;2.70;1.40;;;;;;;18.17;40.05;100619.81;220926;1239;61335;-74
2023/06/02 16:18:35;;;;;;;2.80;1.40;;;;;;;18.12;39.64;100615.87;220925;1240;61260;-73
2023/06/02 16:23:29;;;;;;;1.90;1.40;;;;;;;18.06;39.61;100622.62;220962;1239;61354;-74
2023/06/02 16:28:24;;;;;;;1.40;1.20;;;;;;;17.78;39.35;100627.05;220886;1237;67059;-74
2023/06/02 16:33:16;;;;;;;2.50;1.50;;;;;;;17.28;39.59;100636.27;221115;1239;61240;-73
2023/06/02 16:38:10;;;;;;;2.90;1.00;;;;;;;16.90;40.00;100643.16;220953;1240;61242;-73
2023/06/02 16:43:01;;;;;;;2.20;1.30;;;;;;;16.68;40.05;100647.20;221018;1239;60383;-73
2023/06/02 16:47:53;;;;;;;5.20;1.90;;;;;;;16.61;40.40;100645.52;220974;1240;61386;-73
2023/06/02 16:52:45;;;;;;;3.70;1.90;;;;;;;16.49;40.56;100648.42;220934;1239;61237;-73
2023/06/02 16:57:39;;;;;;;9.30;1.70;;;;;;;16.39;40.47;100655.15;220942;1239;61265;-73
2023/06/02 17:02:31;;;;;;;2.00;1.40;;;;;;;16.18;40.86;100658.28;221059;1240;67958;-73
2023/06/02 17:07:22;;;;;;;2.20;1.20;;;;;;;16.12;41.47;100660.95;220858;1240;61624;-73
2023/06/02 17:12:14;;;;;;;1.60;1.30;;;;;;;16.05;43.13;100667.28;221138;1239;61254;-73
2023/06/02 17:17:05;;;;;;;2.60;1.50;;;;;;;16.21;43.85;100677.14;221112;1239;61224;-74
2023/06/02 17:21:57;;;;;;;1.70;1.20;;;;;;;16.28;44.14;100677.45;221035;1235;61912;-74
2023/06/02 17:26:49;;;;;;;2.40;1.50;;;;;;;16.28;44.37;100682.16;220725;1240;61246;-73
2023/06/02 17:31:40;;;;;;;6.00;1.60;;;;;;;16.20;44.56;100684.33;220839;1239;73920;-73
2023/06/02 17:36:32;;;;;;;2.30;1.30;;;;;;;16.12;44.62;100688.92;221005;1235;61355;-73
2023/06/02 17:41:24;;;;;;;9.50;1.90;;;;;;;16.08;44.97;100699.80;221013;1235;61209;-73
2023/06/02 17:46:15;;;;;;;2.30;1.70;;;;;;;16.02;44.96;100705.59;220999;1239;72304;-73
2023/06/02 17:51:07;;;;;;;3.30;1.90;;;;;;;15.86;43.65;100712.15;221042;1235;61347;-73
2023/06/02 17:55:59;;;;;;;2.80;1.40;;;;;;;15.71;42.36;100718.66;221035;1239;61268;-73
2023/06/02 18:00:51;;;;;;;2.00;1.30;;;;;;;15.50;41.75;100722.03;221039;1235;61258;-73
2023/06/02 18:05:43;;;;;;;3.00;1.00;;;;;;;15.26;41.30;100731.18;220963;1235;68168;-73
2023/06/02 18:10:35;;;;;;;1.70;1.50;;;;;;;15.02;41.06;100738.73;220821;1239;61380;-73
2023/06/02 18:15:27;;;;;;;2.20;1.00;;;;;;;14.72;39.81;100756.02;221030;1236;61640;-73
2023/06/02 18:20:18;;;;;;;4.40;1.30;;;;;;;14.51;39.50;100763.45;221033;1239;61218;-73
2023/06/02 18:25:10;;;;;;;3.60;1.40;;;;;;;14.37;39.11;100769.53;220972;1235;73667;-73
2023/06/02 18:30:03;;;;;;;2.20;1.00;;;;;;;14.22;39.08;100781.00;220902;1239;61244;-73
2023/06/02 18:34:55;;;;;;;0.90;0.90;;;;;;;14.05;38.96;100784.95;220933;1235;61275;-73
2023/06/02 18:39:47;;;;;;;6.00;1.60;;;;;;;13.91;38.94;100785.42;221002;1235;61300;-72
2023/06/02 18:44:38;;;;;;;4.80;1.10;;;;;;;13.76;38.88;100790.58;221034;1239;61320;-72
2023/06/02 18:49:30;;;;;;;3.00;1.10;;;;;;;13.62;38.95;100806.34;220926;1235;65620;-73
2023/06/02 18:54:21;;;;;;;4.60;1.10;;;;;;;13.48;38.80;100819.33;220974;1239;62515;-73
2023/06/02 18:59:13;;;;;;;3.90;1.30;;;;;;;13.36;39.02;100829.52;220928;1235;61248;-73
2023/06/02 19:04:10;;;;;;;2.60;1.10;;;;;;;13.20;39.19;100842.41;220893;1238;61773;-73
2023/06/02 19:09:02;;;;;;;1.20;1.00;;;;;;;13.08;39.39;100856.58;220757;1235;74995;-73
2023/06/02 19:13:54;;;;;;;3.00;1.30;;;;;;;12.99;39.68;100863.63;220897;1235;61267;-73
2023/06/02 19:18:46;;;;;;;4.20;1.60;;;;;;;12.90;39.81;100867.55;220878;1235;61396;-73
2023/06/02 19:23:37;;;;;;;5.50;1.70;;;;;;;12.82;40.14;100875.30;220855;1240;72726;-73
2023/06/02 19:28:29;;;;;;;2.20;1.40;;;;;;;12.69;40.88;100883.51;221011;1235;61355;-73
2023/06/02 19:33:21;;;;;;;5.20;1.30;;;;;;;12.52;41.06;100889.23;220939;1238;61380;-73
2023/06/02 19:38:12;;;;;;;2.80;1.20;;;;;;;12.41;41.78;100898.84;220958;1239;61277;-73
2023/06/02 19:43:05;;;;;;;4.40;1.30;;;;;;;12.27;42.42;100909.42;220962;1240;66932;-73
2023/06/02 19:47:56;;;;;;;2.70;1.40;;;;;;;12.09;42.75;100912.84;220896;1235;61337;-73
2023/06/02 19:52:48;;;;;;;4.70;1.70;;;;;;;11.95;43.45;100923.56;220889;1240;61292;-73
2023/06/02 19:57:40;;;;;;;2.30;1.30;;;;;;;11.81;44.10;100930.11;220962;1235;61383;-72
2023/06/02 20:02:31;;;;;;;1.90;1.30;;;;;;;11.66;44.51;100934.40;220914;1235;73227;-73
2023/06/02 20:07:23;;;;;;;4.30;1.80;;;;;;;11.50;44.97;100934.66;220960;1235;61252;-73
2023/06/02 20:12:15;;;;;;;3.70;1.40;;;;;;;11.32;45.22;100940.27;221024;1234;62043;-73
2023/06/02 20:17:06;;;;;;;2.90;1.20;;;;;;;11.17;45.55;100945.71;220954;1239;70287;-73
2023/06/02 20:21:58;;;;;;;4.20;1.70;;;;;;;11.05;46.01;100943.58;220984;1237;61604;-73
2023/06/02 20:26:50;;;;;;;6.20;3.10;;;;;;;11.01;46.14;100953.04;220949;1239;61886;-73
2023/06/02 20:31:42;;;;;;;3.30;1.70;;;;;;;10.90;45.91;100953.89;220922;1236;61288;-73
2023/06/02 20:36:34;;;;;;;3.10;1.90;;;;;;;10.83;45.99;100958.09;220972;1239;61339;-73
2023/06/02 20:41:25;;;;;;;6.20;1.70;;;;;;;10.76;46.12;100961.07;220987;1239;61361;-73
2023/06/02 20:46:17;;;;;;;3.00;1.60;;;;;;;10.71;47.10;100963.57;220945;1235;65864;-73
2023/06/02 20:51:08;;;;;;;3.70;1.60;;;;;;;10.60;47.05;100968.36;220868;1238;71301;-73
2023/06/02 20:56:00;;;;;;;6.30;1.70;;;;;;;10.50;47.91;100974.74;220892;1235;61318;-73
2023/06/02 21:00:52;;;;;;;4.10;1.80;;;;;;;10.41;48.99;100983.56;220800;1235;61295;-73
2023/06/02 21:05:43;;;;;;;3.90;2.30;;;;;;;10.30;49.55;100992.48;220781;1239;61339;-73
2023/06/02 21:10:35;;;;;;;5.10;1.60;;;;;;;10.18;49.88;101000.16;220855;1239;61314;-73
2023/06/02 21:15:26;;;;;;;3.80;1.70;;;;;;;10.07;50.14;101004.92;220873;1239;74240;-74
2023/06/02 21:20:18;;;;;;;2.50;1.80;;;;;;;9.98;50.40;101011.13;220895;1235;61358;-73
2023/06/02 21:25:09;;;;;;;4.80;2.30;;;;;;;9.90;50.79;101013.71;221030;1235;61303;-73
2023/06/02 21:30:01;;;;;;;3.50;2.20;;;;;;;9.84;50.71;101024.14;220966;1239;72477;-73
2023/06/02 21:34:52;;;;;;;10.00;2.40;;;;;;;9.78;51.27;101024.67;220980;1235;61312;-73
2023/06/02 21:39:44;;;;;;;5.10;3.00;;;;;;;9.64;51.62;101027.08;221001;1239;61307;-73
2023/06/02 21:44:35;;;;;;;3.30;2.40;;;;;;;9.47;52.09;101031.16;220823;1235;61303;-73
2023/06/02 21:49:27;;;;;;;3.00;1.80;;;;;;;9.35;52.31;101036.70;220856;1239;61284;-73
2023/06/02 21:54:19;;;;;;;2.30;1.60;;;;;;;9.27;52.99;101045.82;220955;1235;61284;-73
2023/06/02 21:59:11;;;;;;;3.80;2.20;;;;;;;9.16;53.42;101048.80;220978;1235;67354;-73
2023/06/02 22:04:02;;;;;;;3.50;2.20;;;;;;;9.01;53.42;101048.73;220869;1235;61367;-72
2023/06/02 22:08:54;;;;;;;5.60;2.30;;;;;;;8.89;53.41;101058.91;220963;1235;61626;-73
2023/06/02 22:13:46;;;;;;;4.70;1.90;;;;;;;8.76;53.77;101065.13;220962;1239;61306;-73
2023/06/02 22:18:38;;;;;;;4.20;1.80;;;;;;;8.64;53.78;101069.77;221001;1235;75254;-73
2023/06/02 22:23:29;;;;;;;5.50;2.40;;;;;;;8.53;53.83;101071.50;221007;1239;61329;-73
2023/06/02 22:28:21;;;;;;;6.20;2.20;;;;;;;8.37;54.19;101075.33;221066;1239;61229;-73